Time;durP1;ratioP1;P1;durP2;ratioP2;P2;SDS_P1;SDS_P2;PMS_P1;PMS_P2;Temp;Humidity;BMP_temperature;BMP_pressure;BME280_temperature;BME280_humidity;BME280_pressure;Samples;Min_cycle;Max_cycle;Signal;HPM_P1;HPM_P2
2023/10/16 00:01:09;;;;;;;9.75;9.35;;;;;;;;;;5064200;28;20036;-60
2023/10/16 00:03:43;;;;;;;9.57;9.18;;;;;;;;;;5061951;28;20104;-61
2023/10/16 00:06:12;;;;;;;9.80;9.40;;;;;;;;;;5060014;28;20048;-60
2023/10/16 00:08:47;;;;;;;9.70;9.30;;;;;;;;;;5066087;28;20054;-60
2023/10/16 00:11:12;;;;;;;;;;;;;;;;;;5069177;28;20059;-61
2023/10/16 00:13:39;;;;;;;10.02;9.55;;;;;;;;;;5059959;28;19976;-63
2023/10/16 00:16:04;;;;;;;9.73;9.32;;;;;;;;;;5064280;28;20016;-61
2023/10/16 00:18:34;;;;;;;9.88;9.48;;;;;;;;;;5062137;28;20040;-60
2023/10/16 00:21:04;;;;;;;9.60;9.20;;;;;;;;;;5066014;28;20409;-61
2023/10/16 00:23:38;;;;;;;9.85;9.45;;;;;;;;;;5062773;28;20070;-60
2023/10/16 00:26:03;;;;;;;9.25;8.85;;;;;;;;;;5055595;28;20474;-60
2023/10/16 00:28:30;;;;;;;10.40;9.90;;;;;;;;;;5062715;28;20033;-61
2023/10/16 00:30:55;;;;;;;10.30;9.80;;;;;;;;;;5071948;28;20039;-61
2023/10/16 00:33:21;;;;;;;9.75;9.35;;;;;;;;;;5067935;28;20099;-61
2023/10/16 00:35:48;;;;;;;9.80;9.40;;;;;;;;;;5063991;28;20031;-61
2023/10/16 00:38:13;;;;;;;10.45;9.95;;;;;;;;;;5056644;28;20115;-61
2023/10/16 00:40:51;;;;;;;10.40;9.90;;;;;;;;;;5065002;28;20108;-61
2023/10/16 00:43:20;;;;;;;9.90;9.40;;;;;;;;;;5066408;28;20029;-61
2023/10/16 00:45:49;;;;;;;9.25;8.85;;;;;;;;;;5064658;28;20026;-61
2023/10/16 00:48:15;;;;;;;9.70;9.30;;;;;;;;;;5065894;28;20027;-61
2023/10/16 00:50:43;;;;;;;10.07;9.57;;;;;;;;;;5066087;28;20127;-60
2023/10/16 00:53:08;;;;;;;10.10;9.60;;;;;;;;;;5057265;28;20016;-62
2023/10/16 00:55:34;;;;;;;9.80;9.40;;;;;;;;;;5065357;28;20024;-61
2023/10/16 00:58:00;;;;;;;10.35;9.85;;;;;;;;;;5065900;28;20031;-61
2023/10/16 01:00:27;;;;;;;9.80;9.40;;;;;;;;;;5066104;28;20013;-62
2023/10/16 01:02:52;;;;;;;9.45;9.05;;;;;;;;;;5065199;28;20024;-62
2023/10/16 01:05:23;;;;;;;9.90;9.48;;;;;;;;;;5065616;28;20083;-62
2023/10/16 01:07:49;;;;;;;9.60;9.20;;;;;;;;;;5067142;28;20036;-62
2023/10/16 01:10:14;;;;;;;9.52;9.13;;;;;;;;;;5061420;28;20028;-61
2023/10/16 01:12:54;;;;;;;10.30;9.80;;;;;;;;;;5070790;28;20041;-61
2023/10/16 01:15:19;;;;;;;10.00;9.50;;;;;;;;;;5080018;28;20020;-62
2023/10/16 01:17:46;;;;;;;9.57;9.18;;;;;;;;;;5064595;28;20589;-62
2023/10/16 01:20:12;;;;;;;9.57;9.18;;;;;;;;;;5065189;28;20021;-62
2023/10/16 01:22:38;;;;;;;9.50;9.10;;;;;;;;;;5060446;28;20055;-62
2023/10/16 01:25:08;;;;;;;9.63;9.23;;;;;;;;;;5065982;28;20021;-61
2023/10/16 01:27:37;;;;;;;10.23;9.73;;;;;;;;;;5067339;28;20553;-61
2023/10/16 01:30:05;;;;;;;9.70;9.30;;;;;;;;;;5071432;28;21248;-61
2023/10/16 01:32:31;;;;;;;9.55;9.15;;;;;;;;;;5066698;28;20181;-61
2023/10/16 01:34:56;;;;;;;9.60;9.20;;;;;;;;;;5068605;28;20019;-61
2023/10/16 01:37:23;;;;;;;9.75;9.35;;;;;;;;;;5069069;28;20055;-60
2023/10/16 01:39:48;;;;;;;9.68;9.27;;;;;;;;;;5064227;28;20056;-61
2023/10/16 01:42:15;;;;;;;9.52;9.13;;;;;;;;;;5074618;28;20149;-62
2023/10/16 01:44:43;;;;;;;9.38;8.98;;;;;;;;;;5068350;28;20020;-61
2023/10/16 01:47:13;;;;;;;9.75;9.35;;;;;;;;;;5069791;28;20362;-62
2023/10/16 01:49:39;;;;;;;9.50;9.10;;;;;;;;;;5066469;28;20025;-60
2023/10/16 01:52:10;;;;;;;9.15;8.75;;;;;;;;;;5064230;28;20021;-60
2023/10/16 01:54:39;;;;;;;9.70;9.30;;;;;;;;;;5072860;28;20035;-62
2023/10/16 01:57:12;;;;;;;9.60;9.20;;;;;;;;;;5069747;28;20035;-62
2023/10/16 01:59:39;;;;;;;10.02;9.52;;;;;;;;;;5070101;28;20033;-61
2023/10/16 02:02:05;;;;;;;10.10;9.60;;;;;;;;;;5069919;28;20025;-61
2023/10/16 02:04:30;;;;;;;9.77;9.38;;;;;;;;;;5073297;28;20100;-60
2023/10/16 02:06:55;;;;;;;9.98;9.52;;;;;;;;;;5070992;28;20027;-61
2023/10/16 02:09:23;;;;;;;9.60;9.20;;;;;;;;;;5073285;28;20378;-60
2023/10/16 02:11:49;;;;;;;9.70;9.30;;;;;;;;;;5081223;28;20053;-61
2023/10/16 02:14:14;;;;;;;9.95;9.50;;;;;;;;;;5072001;28;20044;-60
2023/10/16 02:16:41;;;;;;;9.70;9.30;;;;;;;;;;5069287;28;20021;-60
2023/10/16 02:19:07;;;;;;;9.80;9.40;;;;;;;;;;5063153;28;20058;-61
2023/10/16 02:21:32;;;;;;;9.45;9.05;;;;;;;;;;5061180;28;20094;-61
2023/10/16 02:24:03;;;;;;;9.80;9.40;;;;;;;;;;5063465;28;20040;-61
2023/10/16 02:26:30;;;;;;;9.60;9.20;;;;;;;;;;5068445;28;20133;-61
2023/10/16 02:28:58;;;;;;;10.00;9.50;;;;;;;;;;5059563;28;20021;-61
2023/10/16 02:31:24;;;;;;;9.63;9.23;;;;;;;;;;5082263;28;20037;-62
2023/10/16 02:33:56;;;;;;;9.50;9.10;;;;;;;;;;5067802;28;20107;-60
2023/10/16 02:36:21;;;;;;;10.85;10.35;;;;;;;;;;5070011;28;20033;-61
2023/10/16 02:38:47;;;;;;;10.00;9.50;;;;;;;;;;5066709;28;20035;-61
2023/10/16 02:41:14;;;;;;;10.25;9.75;;;;;;;;;;5077595;28;20102;-65
2023/10/16 02:43:42;;;;;;;9.50;9.10;;;;;;;;;;5077792;28;20047;-61
2023/10/16 02:46:11;;;;;;;9.45;9.05;;;;;;;;;;5073250;28;20070;-61
2023/10/16 02:48:36;;;;;;;9.52;9.13;;;;;;;;;;5058774;28;20052;-61
2023/10/16 02:51:02;;;;;;;9.70;9.30;;;;;;;;;;5071772;28;20093;-59
2023/10/16 02:53:28;;;;;;;10.23;9.73;;;;;;;;;;5070437;28;20048;-61
2023/10/16 02:55:57;;;;;;;9.52;9.13;;;;;;;;;;5071253;28;20086;-60
2023/10/16 02:58:26;;;;;;;9.40;9.00;;;;;;;;;;5068559;28;20023;-60
2023/10/16 03:00:53;;;;;;;9.52;9.13;;;;;;;;;;5065197;28;20453;-60
2023/10/16 03:03:19;;;;;;;10.10;9.60;;;;;;;;;;5069448;28;20055;-61
2023/10/16 03:05:44;;;;;;;10.80;10.30;;;;;;;;;;5055055;28;20059;-60
2023/10/16 03:08:10;;;;;;;9.55;9.15;;;;;;;;;;5062958;28;20024;-61
2023/10/16 03:10:36;;;;;;;9.50;9.10;;;;;;;;;;5062911;28;20490;-62
2023/10/16 03:13:05;;;;;;;10.05;9.55;;;;;;;;;;5065280;28;20471;-62
2023/10/16 03:15:38;;;;;;;9.73;9.32;;;;;;;;;;5060788;28;20031;-61
2023/10/16 03:18:04;;;;;;;10.18;9.68;;;;;;;;;;5067278;28;20095;-62
2023/10/16 03:20:35;;;;;;;9.52;9.13;;;;;;;;;;5069912;28;20036;-62
2023/10/16 03:23:06;;;;;;;9.30;8.90;;;;;;;;;;5065603;28;20024;-61
2023/10/16 03:25:50;;;;;;;10.38;9.88;;;;;;;;;;5066353;28;20012;-61
2023/10/16 03:28:17;;;;;;;9.52;9.13;;;;;;;;;;5058134;28;20486;-62
2023/10/16 03:30:43;;;;;;;10.60;10.10;;;;;;;;;;5064050;28;20454;-61
2023/10/16 03:33:14;;;;;;;9.80;9.40;;;;;;;;;;5066354;28;20032;-62
2023/10/16 03:35:41;;;;;;;10.15;9.65;;;;;;;;;;5061362;28;20029;-61
2023/10/16 03:38:12;;;;;;;10.40;9.90;;;;;;;;;;5061554;28;20017;-61
2023/10/16 03:40:38;;;;;;;10.10;9.60;;;;;;;;;;5061240;28;20024;-61
2023/10/16 03:43:08;;;;;;;10.10;9.60;;;;;;;;;;5070567;28;20575;-61
2023/10/16 03:45:37;;;;;;;9.57;9.18;;;;;;;;;;5061923;28;20024;-61
2023/10/16 03:48:03;;;;;;;9.60;9.20;;;;;;;;;;5065755;28;20139;-60
2023/10/16 03:50:34;;;;;;;9.70;9.30;;;;;;;;;;5068191;28;20180;-61
2023/10/16 03:53:00;;;;;;;9.50;9.10;;;;;;;;;;5056353;28;20024;-60
2023/10/16 03:55:25;;;;;;;10.27;9.77;;;;;;;;;;5066247;28;20021;-62
2023/10/16 03:57:57;;;;;;;9.32;8.93;;;;;;;;;;5063882;28;20086;-61
2023/10/16 04:00:41;;;;;;;9.70;9.30;;;;;;;;;;5066879;28;20021;-62
2023/10/16 04:03:08;;;;;;;9.30;8.90;;;;;;;;;;5066384;28;20029;-62
2023/10/16 04:05:45;;;;;;;10.20;9.70;;;;;;;;;;5066227;28;20485;-61
2023/10/16 04:08:10;;;;;;;10.13;9.63;;;;;;;;;;5059644;28;20079;-62
2023/10/16 04:10:36;;;;;;;10.30;9.80;;;;;;;;;;5064552;28;20501;-62
2023/10/16 04:13:02;;;;;;;9.80;9.38;;;;;;;;;;5068986;28;20067;-60
2023/10/16 04:31:44;;;;;;;9.50;9.10;;;;;;;;;;5057962;28;20159;-61
2023/10/16 04:37:29;;;;;;;9.98;9.48;;;;;;;;;;5060338;28;20031;-64
2023/10/16 04:48:06;;;;;;;10.30;9.80;;;;;;;;;;5062868;28;20081;-61
2023/10/16 05:03:35;;;;;;;11.15;10.55;;;;;;;;;;5063232;28;20116;-62
2023/10/16 05:14:19;;;;;;;10.45;9.95;;;;;;;;;;5058617;28;20501;-61
2023/10/16 05:22:09;;;;;;;10.50;10.00;;;;;;;;;;5071583;28;20016;-62
2023/10/16 06:16:35;;;;;;;11.88;11.27;;;;;;;;;;5065318;28;20501;-60
2023/10/16 06:19:07;;;;;;;10.40;9.90;;;;;;;;;;5062649;28;20036;-62
2023/10/16 06:21:32;;;;;;;10.48;9.98;;;;;;;;;;5061890;28;20017;-61
2023/10/16 06:23:57;;;;;;;9.68;9.27;;;;;;;;;;5066757;28;20021;-62
2023/10/16 06:26:27;;;;;;;9.90;9.50;;;;;;;;;;5069482;28;20412;-61
2023/10/16 06:28:52;;;;;;;10.60;10.10;;;;;;;;;;5063859;28;20113;-62
2023/10/16 06:31:23;;;;;;;10.70;10.20;;;;;;;;;;5063248;28;20082;-62
2023/10/16 06:33:58;;;;;;;10.20;9.70;;;;;;;;;;5070676;28;20047;-63
2023/10/16 06:36:28;;;;;;;10.98;10.48;;;;;;;;;;5070754;28;20054;-61
2023/10/16 06:38:54;;;;;;;10.70;10.20;;;;;;;;;;5072942;28;20079;-63
2023/10/16 06:41:22;;;;;;;11.68;11.07;;;;;;;;;;5070999;28;20016;-69
2023/10/16 06:43:50;;;;;;;11.48;10.88;;;;;;;;;;5066309;28;20103;-62
2023/10/16 06:46:21;;;;;;;12.38;11.73;;;;;;;;;;5060206;28;20016;-62
2023/10/16 06:48:48;;;;;;;11.77;11.18;;;;;;;;;;5057484;28;20027;-65
2023/10/16 06:51:15;;;;;;;11.63;11.02;;;;;;;;;;5058689;28;20027;-64
2023/10/16 06:53:41;;;;;;;11.25;10.73;;;;;;;;;;5059958;28;20021;-65
2023/10/16 06:56:06;;;;;;;11.02;10.52;;;;;;;;;;5061401;28;20025;-63
2023/10/16 06:58:34;;;;;;;10.93;10.43;;;;;;;;;;5060503;28;20043;-66
2023/10/16 07:00:59;;;;;;;10.88;10.38;;;;;;;;;;5058961;28;20021;-64
2023/10/16 07:03:24;;;;;;;11.00;10.50;;;;;;;;;;5055744;28;20029;-64
2023/10/16 07:05:50;;;;;;;10.77;10.27;;;;;;;;;;5064600;28;20030;-64
2023/10/16 07:08:19;;;;;;;12.55;11.93;;;;;;;;;;5058052;28;20021;-64
2023/10/16 07:10:51;;;;;;;11.35;10.75;;;;;;;;;;5062779;28;20008;-64
2023/10/16 07:13:26;;;;;;;12.10;11.50;;;;;;;;;;5062300;28;20040;-63
2023/10/16 07:16:01;;;;;;;10.80;10.30;;;;;;;;;;5058050;28;20032;-63
2023/10/16 07:18:27;;;;;;;11.68;11.07;;;;;;;;;;5063826;28;20020;-63
2023/10/16 07:20:59;;;;;;;11.30;10.75;;;;;;;;;;5062450;28;20481;-65
2023/10/16 07:23:34;;;;;;;11.85;11.25;;;;;;;;;;5057752;28;20063;-64
2023/10/16 07:26:00;;;;;;;12.10;11.50;;;;;;;;;;5055622;28;20628;-63
2023/10/16 07:28:26;;;;;;;11.30;10.80;;;;;;;;;;5056289;28;20119;-63
2023/10/16 07:30:52;;;;;;;11.50;10.95;;;;;;;;;;5057866;28;20115;-64
2023/10/16 07:33:20;;;;;;;11.57;11.07;;;;;;;;;;5061940;28;20084;-63
2023/10/16 07:35:46;;;;;;;11.48;10.98;;;;;;;;;;5060411;28;20347;-64
2023/10/16 07:38:18;;;;;;;10.98;10.48;;;;;;;;;;5055562;28;20021;-63
2023/10/16 07:40:45;;;;;;;11.00;10.50;;;;;;;;;;5055751;28;20033;-65
2023/10/16 07:43:10;;;;;;;11.55;11.05;;;;;;;;;;5050387;28;20028;-64
2023/10/16 07:45:37;;;;;;;11.45;10.95;;;;;;;;;;5057545;28;20024;-66
2023/10/16 07:48:17;;;;;;;11.75;11.25;;;;;;;;;;5049310;28;20051;-66
2023/10/16 07:50:43;;;;;;;12.00;11.50;;;;;;;;;;5048375;28;20902;-65
2023/10/16 07:53:08;;;;;;;11.70;11.20;;;;;;;;;;5051664;28;20024;-66
2023/10/16 07:55:40;;;;;;;11.68;11.18;;;;;;;;;;5061358;28;20027;-66
2023/10/16 07:58:15;;;;;;;11.88;11.38;;;;;;;;;;5057119;28;20028;-65
2023/10/16 08:00:42;;;;;;;11.75;11.25;;;;;;;;;;5060827;28;20036;-65
2023/10/16 08:03:13;;;;;;;11.68;11.18;;;;;;;;;;5063932;28;20033;-64
2023/10/16 08:05:47;;;;;;;11.80;11.30;;;;;;;;;;5060301;28;20485;-64
2023/10/16 08:08:12;;;;;;;;;;;;;;;;;;5059008;28;20020;-64
2023/10/16 08:10:41;;;;;;;11.90;11.40;;;;;;;;;;5060095;28;19908;-65
2023/10/16 08:13:12;;;;;;;11.70;11.20;;;;;;;;;;5062184;28;20055;-63
2023/10/16 08:15:40;;;;;;;11.93;11.43;;;;;;;;;;5057943;28;20025;-64
2023/10/16 08:18:10;;;;;;;11.77;11.27;;;;;;;;;;5065552;28;20050;-63
2023/10/16 08:21:00;;;;;;;11.82;11.32;;;;;;;;;;5064155;28;20079;-64
2023/10/16 08:23:38;;;;;;;11.73;11.23;;;;;;;;;;5058264;28;20059;-63
2023/10/16 08:26:48;;;;;;;11.77;11.27;;;;;;;;;;5060357;28;20024;-64
2023/10/16 08:28:54;;;;;;;12.20;11.70;;;;;;;;;;5053196;28;20032;-66
2023/10/16 08:31:23;;;;;;;12.40;11.80;;;;;;;;;;5057067;28;20071;-63
2023/10/16 08:33:59;;;;;;;11.50;11.00;;;;;;;;;;5063081;28;20477;-63
2023/10/16 08:36:26;;;;;;;11.57;11.07;;;;;;;;;;5063358;28;20020;-64
2023/10/16 08:39:07;;;;;;;12.00;11.50;;;;;;;;;;5062262;28;20116;-64
2023/10/16 08:41:42;;;;;;;11.60;11.10;;;;;;;;;;5054215;28;20033;-63
2023/10/16 08:44:24;;;;;;;12.00;11.50;;;;;;;;;;5057399;28;20139;-63
2023/10/16 08:49:25;;;;;;;12.10;11.57;;;;;;;;;;5055136;28;20032;-62
2023/10/16 08:51:52;;;;;;;12.35;11.75;;;;;;;;;;5064542;28;20128;-64
2023/10/16 08:55:23;;;;;;;11.32;10.82;;;;;;;;;;5067564;28;20067;-63
2023/10/16 08:57:13;;;;;;;11.43;10.93;;;;;;;;;;5056256;28;20042;-63
2023/10/16 08:59:39;;;;;;;11.40;10.90;;;;;;;;;;5060445;28;20024;-63
2023/10/16 09:02:07;;;;;;;11.60;11.10;;;;;;;;;;5062583;28;20032;-64
2023/10/16 09:04:33;;;;;;;11.10;10.60;;;;;;;;;;5066087;28;21757;-64
2023/10/16 09:06:59;;;;;;;11.38;10.88;;;;;;;;;;5059334;28;20028;-63
2023/10/16 09:09:28;;;;;;;11.48;10.98;;;;;;;;;;5058217;28;20026;-63
2023/10/16 09:12:04;;;;;;;11.48;10.98;;;;;;;;;;5058921;28;20051;-63
2023/10/16 09:14:29;;;;;;;11.50;11.00;;;;;;;;;;5060707;28;20127;-67
2023/10/16 09:16:57;;;;;;;12.20;11.60;;;;;;;;;;5059640;28;20115;-63
2023/10/16 09:19:35;;;;;;;11.82;11.32;;;;;;;;;;5065228;28;20032;-64
2023/10/16 09:22:04;;;;;;;11.85;11.35;;;;;;;;;;5063053;28;20534;-63
2023/10/16 09:24:29;;;;;;;11.65;11.15;;;;;;;;;;5065867;28;20032;-64
2023/10/16 09:26:56;;;;;;;11.95;11.40;;;;;;;;;;5056880;28;20033;-63
2023/10/16 09:29:25;;;;;;;12.20;11.60;;;;;;;;;;5055522;28;20248;-64
2023/10/16 09:31:51;;;;;;;12.52;11.93;;;;;;;;;;5063861;28;20036;-65
2023/10/16 09:34:19;;;;;;;12.00;11.40;;;;;;;;;;5065564;28;20032;-65
2023/10/16 09:36:48;;;;;;;11.27;10.77;;;;;;;;;;5064471;28;20116;-63
2023/10/16 09:39:17;;;;;;;12.05;11.45;;;;;;;;;;5063906;28;20013;-65
2023/10/16 09:41:43;;;;;;;11.65;11.15;;;;;;;;;;5064521;28;20029;-63
2023/10/16 09:44:23;;;;;;;11.52;11.02;;;;;;;;;;5067542;28;20035;-65
2023/10/16 09:46:58;;;;;;;11.52;11.02;;;;;;;;;;5052957;28;20066;-65
2023/10/16 09:49:24;;;;;;;11.43;10.93;;;;;;;;;;5057230;28;20063;-64
2023/10/16 09:51:57;;;;;;;12.05;11.45;;;;;;;;;;5054618;28;20389;-66
2023/10/16 09:54:25;;;;;;;11.37;10.87;;;;;;;;;;5068068;28;20034;-64
2023/10/16 09:56:58;;;;;;;13.32;12.65;;;;;;;;;;5057894;28;20817;-66
2023/10/16 09:59:26;;;;;;;11.68;11.15;;;;;;;;;;5062397;28;20028;-63
2023/10/16 10:01:55;;;;;;;11.55;11.02;;;;;;;;;;5057795;28;20029;-66
2023/10/16 10:04:24;;;;;;;12.07;11.48;;;;;;;;;;5065709;28;20023;-66
2023/10/16 10:06:59;;;;;;;11.73;11.18;;;;;;;;;;5069298;28;20047;-64
2023/10/16 10:09:41;;;;;;;11.38;10.88;;;;;;;;;;5068050;28;20988;-64
2023/10/16 10:12:37;;;;;;;11.50;11.00;;;;;;;;;;5072645;28;20086;-64
2023/10/16 10:15:25;;;;;;;11.80;11.20;;;;;;;;;;5059970;28;20577;-64
2023/10/16 10:17:55;;;;;;;11.35;10.85;;;;;;;;;;5065019;28;20028;-65
2023/10/16 10:20:31;;;;;;;11.82;11.23;;;;;;;;;;5058317;28;20033;-63
2023/10/16 10:22:58;;;;;;;11.93;11.32;;;;;;;;;;5061086;28;20095;-64
2023/10/16 10:25:35;;;;;;;11.75;11.18;;;;;;;;;;5068237;28;20025;-64
2023/10/16 10:28:10;;;;;;;12.30;11.70;;;;;;;;;;5058784;28;20017;-64
2023/10/16 10:30:43;;;;;;;11.27;10.77;;;;;;;;;;5061519;28;20426;-61
2023/10/16 10:33:10;;;;;;;12.35;11.75;;;;;;;;;;5059006;28;20123;-64
2023/10/16 10:35:39;;;;;;;11.60;11.05;;;;;;;;;;5058963;28;20029;-63
2023/10/16 10:38:07;;;;;;;11.38;10.88;;;;;;;;;;5061002;28;20040;-64
2023/10/16 10:40:35;;;;;;;11.80;11.20;;;;;;;;;;5059126;28;20024;-64
2023/10/16 10:43:02;;;;;;;11.50;11.00;;;;;;;;;;5061399;28;20082;-65
2023/10/16 10:45:34;;;;;;;12.20;11.60;;;;;;;;;;5057717;28;20105;-65
2023/10/16 10:48:11;;;;;;;12.02;11.43;;;;;;;;;;5055807;28;20516;-64
2023/10/16 10:50:41;;;;;;;11.60;11.10;;;;;;;;;;5062394;28;20025;-65
2023/10/16 10:53:15;;;;;;;11.55;11.05;;;;;;;;;;5060182;28;20017;-63
2023/10/16 10:55:40;;;;;;;;;;;;;;;;;;5056989;28;20032;-63
2023/10/16 10:58:12;;;;;;;11.48;10.98;;;;;;;;;;5065855;28;20396;-65
2023/10/16 11:00:49;;;;;;;11.98;11.38;;;;;;;;;;5060407;28;20019;-63
2023/10/16 11:03:32;;;;;;;11.30;10.80;;;;;;;;;;5064018;28;20098;-65
2023/10/16 11:05:57;;;;;;;11.50;11.00;;;;;;;;;;5061280;28;20025;-64
2023/10/16 11:08:26;;;;;;;11.38;10.88;;;;;;;;;;5068212;28;20017;-64
2023/10/16 11:10:52;;;;;;;11.30;10.80;;;;;;;;;;5055540;28;20491;-63
2023/10/16 11:13:18;;;;;;;11.80;11.20;;;;;;;;;;5061970;28;21240;-65
2023/10/16 11:15:47;;;;;;;11.93;11.32;;;;;;;;;;5058719;28;20078;-65
2023/10/16 11:18:13;;;;;;;11.57;11.05;;;;;;;;;;5057944;28;20557;-67
2023/10/16 11:20:39;;;;;;;12.27;11.68;;;;;;;;;;5064238;28;20167;-64
2023/10/16 11:23:12;;;;;;;11.77;11.20;;;;;;;;;;5057856;28;20020;-64
2023/10/16 11:25:44;;;;;;;11.45;10.95;;;;;;;;;;5066999;28;20103;-63
2023/10/16 11:28:10;;;;;;;11.98;11.38;;;;;;;;;;5064029;28;20020;-63
2023/10/16 11:30:38;;;;;;;12.45;11.85;;;;;;;;;;5053547;28;20028;-64
2023/10/16 11:33:04;;;;;;;12.88;12.27;;;;;;;;;;5055476;28;20409;-65
2023/10/16 11:35:34;;;;;;;11.13;10.63;;;;;;;;;;5056750;28;20070;-64
2023/10/16 11:37:59;;;;;;;11.55;11.05;;;;;;;;;;5056885;28;20109;-65
2023/10/16 11:40:32;;;;;;;11.85;11.25;;;;;;;;;;5058901;28;20947;-65
2023/10/16 11:43:04;;;;;;;12.13;11.52;;;;;;;;;;5062496;28;20032;-64
2023/10/16 11:45:33;;;;;;;11.82;11.23;;;;;;;;;;5057506;28;20054;-65
2023/10/16 11:50:50;;;;;;;12.07;11.48;;;;;;;;;;5052535;28;20049;-65
2023/10/16 11:53:15;;;;;;;11.15;10.65;;;;;;;;;;5057949;28;20017;-64
2023/10/16 11:55:42;;;;;;;11.95;11.35;;;;;;;;;;5062752;28;20028;-65
2023/10/16 11:58:08;;;;;;;12.90;12.30;;;;;;;;;;5058863;28;20517;-67
2023/10/16 12:00:42;;;;;;;12.68;12.07;;;;;;;;;;5059555;28;20037;-65
2023/10/16 12:03:14;;;;;;;13.10;12.50;;;;;;;;;;5060820;28;20023;-65
2023/10/16 12:05:42;;;;;;;12.02;11.43;;;;;;;;;;5053522;28;20048;-66
2023/10/16 12:08:08;;;;;;;11.98;11.38;;;;;;;;;;5062891;28;20416;-64
2023/10/16 12:10:33;;;;;;;12.13;11.52;;;;;;;;;;5055137;28;20028;-63
2023/10/16 12:12:59;;;;;;;11.75;11.20;;;;;;;;;;5067660;28;20052;-61
2023/10/16 12:15:25;;;;;;;11.13;10.63;;;;;;;;;;5062028;28;20393;-61
2023/10/16 12:17:53;;;;;;;11.43;10.93;;;;;;;;;;5066212;28;20021;-61
2023/10/16 12:20:19;;;;;;;12.35;11.75;;;;;;;;;;5056333;28;20037;-61
2023/10/16 12:22:47;;;;;;;10.80;10.30;;;;;;;;;;5057561;28;20025;-62
2023/10/16 12:25:12;;;;;;;11.15;10.65;;;;;;;;;;5060838;28;20024;-63
2023/10/16 12:27:38;;;;;;;11.55;11.05;;;;;;;;;;5054677;28;20017;-61
2023/10/16 12:30:04;;;;;;;10.80;10.30;;;;;;;;;;5062890;28;20111;-61
2023/10/16 12:32:29;;;;;;;10.68;10.18;;;;;;;;;;5067866;28;20028;-63
2023/10/16 12:34:54;;;;;;;11.10;10.60;;;;;;;;;;5067709;28;20031;-62
2023/10/16 12:37:22;;;;;;;10.68;10.18;;;;;;;;;;5063505;28;20032;-61
2023/10/16 12:39:48;;;;;;;10.80;10.30;;;;;;;;;;5066880;28;20040;-62
2023/10/16 12:42:13;;;;;;;11.40;10.90;;;;;;;;;;5061167;28;20024;-62
2023/10/16 12:44:39;;;;;;;11.60;11.10;;;;;;;;;;5057048;28;20028;-63
2023/10/16 12:47:05;;;;;;;11.32;10.82;;;;;;;;;;5061556;28;20029;-65
2023/10/16 12:49:30;;;;;;;11.95;11.35;;;;;;;;;;5062844;28;20880;-65
2023/10/16 12:51:56;;;;;;;12.48;11.88;;;;;;;;;;5061813;28;20032;-65
2023/10/16 12:54:24;;;;;;;12.07;11.48;;;;;;;;;;5064565;28;20413;-65
2023/10/16 12:56:52;;;;;;;12.30;11.70;;;;;;;;;;5063310;28;20095;-66
2023/10/16 12:59:18;;;;;;;12.40;11.80;;;;;;;;;;5060646;28;20111;-63
2023/10/16 13:01:45;;;;;;;11.82;11.23;;;;;;;;;;5062521;28;20489;-64
2023/10/16 13:04:15;;;;;;;12.00;11.40;;;;;;;;;;5059779;28;20044;-65
2023/10/16 13:06:40;;;;;;;11.40;10.90;;;;;;;;;;5063007;28;20063;-64
2023/10/16 13:09:14;;;;;;;11.48;10.98;;;;;;;;;;5054735;28;21268;-65
2023/10/16 13:11:39;;;;;;;12.60;12.00;;;;;;;;;;5056875;28;20103;-66
2023/10/16 13:14:05;;;;;;;12.43;11.82;;;;;;;;;;5056681;28;20124;-61
2023/10/16 13:16:31;;;;;;;11.90;11.30;;;;;;;;;;5058850;28;20776;-63
2023/10/16 13:18:59;;;;;;;12.60;12.00;;;;;;;;;;5061020;28;20035;-64
2023/10/16 13:21:34;;;;;;;12.40;11.80;;;;;;;;;;5052066;28;20028;-63
2023/10/16 13:24:14;;;;;;;12.57;11.98;;;;;;;;;;5064716;28;20039;-63
2023/10/16 13:26:40;;;;;;;11.95;11.35;;;;;;;;;;5055918;28;20499;-63
2023/10/16 13:29:07;;;;;;;11.73;11.13;;;;;;;;;;5058972;28;20020;-63
2023/10/16 13:32:00;;;;;;;11.07;10.57;;;;;;;;;;5060615;28;20478;-63
2023/10/16 13:34:21;;;;;;;11.10;10.60;;;;;;;;;;5060423;28;20048;-63
2023/10/16 13:36:56;;;;;;;11.38;10.88;;;;;;;;;;5064686;28;20029;-65
2023/10/16 13:39:38;;;;;;;11.23;10.73;;;;;;;;;;5060901;28;20025;-62
2023/10/16 13:42:08;;;;;;;11.63;11.07;;;;;;;;;;5057565;28;20060;-64
2023/10/16 13:44:34;;;;;;;11.52;11.00;;;;;;;;;;5070364;28;20472;-64
2023/10/16 13:47:01;;;;;;;10.75;10.25;;;;;;;;;;5075459;28;20069;-63
2023/10/16 13:49:28;;;;;;;11.93;11.32;;;;;;;;;;5073482;28;20032;-63
2023/10/16 13:51:54;;;;;;;11.75;11.15;;;;;;;;;;5071573;28;20486;-62
2023/10/16 13:54:20;;;;;;;11.38;10.88;;;;;;;;;;5074046;28;20029;-63
2023/10/16 13:56:46;;;;;;;11.60;11.07;;;;;;;;;;5071047;28;20068;-63
2023/10/16 13:59:12;;;;;;;12.23;11.63;;;;;;;;;;5060562;28;20024;-63
2023/10/16 14:01:39;;;;;;;11.35;10.85;;;;;;;;;;5064904;28;20035;-63
2023/10/16 14:04:14;;;;;;;12.10;11.50;;;;;;;;;;5055630;28;20035;-64
2023/10/16 14:06:52;;;;;;;11.77;11.18;;;;;;;;;;5052839;28;20029;-65
2023/10/16 14:09:27;;;;;;;12.13;11.52;;;;;;;;;;5051248;28;20036;-64
2023/10/16 14:11:52;;;;;;;12.82;12.23;;;;;;;;;;5044231;28;20033;-66
2023/10/16 14:14:21;;;;;;;11.40;10.90;;;;;;;;;;5050107;28;20053;-66
2023/10/16 14:17:18;;;;;;;12.35;11.75;;;;;;;;;;5048405;28;20033;-66
2023/10/16 14:19:51;;;;;;;12.40;11.80;;;;;;;;;;5048754;28;20036;-65
2023/10/16 14:22:16;;;;;;;11.68;11.07;;;;;;;;;;5062193;28;20031;-64
2023/10/16 14:24:44;;;;;;;13.32;12.63;;;;;;;;;;5051081;28;20029;-65
2023/10/16 14:27:14;;;;;;;13.07;12.38;;;;;;;;;;5043512;28;20374;-65
2023/10/16 14:29:44;;;;;;;12.20;11.60;;;;;;;;;;5045558;28;20032;-65
2023/10/16 14:32:10;;;;;;;12.60;12.00;;;;;;;;;;5044941;28;20036;-65
2023/10/16 14:34:36;;;;;;;13.48;12.77;;;;;;;;;;5040505;28;20032;-66
2023/10/16 14:37:02;;;;;;;11.70;11.10;;;;;;;;;;5047456;28;20032;-64
2023/10/16 14:39:28;;;;;;;13.65;12.95;;;;;;;;;;5049289;28;20064;-68
2023/10/16 14:41:57;;;;;;;12.10;11.50;;;;;;;;;;5048428;28;20469;-65
2023/10/16 14:44:23;;;;;;;12.48;11.88;;;;;;;;;;5062025;28;20040;-64
2023/10/16 14:46:48;;;;;;;11.80;11.20;;;;;;;;;;5058399;28;20036;-62
2023/10/16 14:49:13;;;;;;;12.95;12.25;;;;;;;;;;5061177;28;20025;-63
2023/10/16 14:51:39;;;;;;;12.23;11.63;;;;;;;;;;5062794;28;20033;-63
2023/10/16 14:54:05;;;;;;;11.77;11.18;;;;;;;;;;5059134;28;20028;-62
2023/10/16 14:56:33;;;;;;;12.57;11.98;;;;;;;;;;5055004;28;20377;-63
2023/10/16 14:58:59;;;;;;;11.38;10.88;;;;;;;;;;5054345;28;20168;-64
2023/10/16 15:01:27;;;;;;;11.55;10.98;;;;;;;;;;5054486;28;22718;-64
2023/10/16 15:03:53;;;;;;;11.95;11.35;;;;;;;;;;5056472;28;20029;-62
2023/10/16 15:06:19;;;;;;;11.27;10.77;;;;;;;;;;5058105;28;20115;-66
2023/10/16 15:08:45;;;;;;;11.52;11.00;;;;;;;;;;5056695;28;20557;-63
2023/10/16 15:11:10;;;;;;;10.80;10.30;;;;;;;;;;5060781;28;20071;-64
2023/10/16 15:13:39;;;;;;;11.27;10.77;;;;;;;;;;5057904;28;20086;-64
2023/10/16 15:16:06;;;;;;;12.00;11.40;;;;;;;;;;5061014;28;20505;-62
2023/10/16 15:18:33;;;;;;;12.43;11.82;;;;;;;;;;5062065;28;20032;-62
2023/10/16 15:20:58;;;;;;;10.50;10.00;;;;;;;;;;5061317;28;20345;-63
2023/10/16 15:23:24;;;;;;;11.05;10.55;;;;;;;;;;5066010;28;20032;-63
2023/10/16 15:25:50;;;;;;;10.85;10.35;;;;;;;;;;5063150;28;20131;-62
2023/10/16 15:28:16;;;;;;;11.13;10.63;;;;;;;;;;5061676;28;20366;-62
2023/10/16 15:30:44;;;;;;;11.13;10.63;;;;;;;;;;5064970;28;20042;-61
2023/10/16 15:33:09;;;;;;;11.18;10.68;;;;;;;;;;5066711;28;20032;-63
2023/10/16 15:35:35;;;;;;;10.35;9.85;;;;;;;;;;5060336;28;20032;-62
2023/10/16 15:38:01;;;;;;;10.45;9.95;;;;;;;;;;5062005;28;20568;-62
2023/10/16 15:40:29;;;;;;;10.60;10.10;;;;;;;;;;5060852;28;20031;-62
2023/10/16 15:42:59;;;;;;;10.85;10.35;;;;;;;;;;5065408;28;20013;-62
2023/10/16 15:45:25;;;;;;;11.07;10.57;;;;;;;;;;5062907;28;20032;-63
2023/10/16 15:47:58;;;;;;;10.48;9.98;;;;;;;;;;5067932;28;20139;-63
2023/10/16 15:50:27;;;;;;;10.37;9.87;;;;;;;;;;5069918;28;20052;-62
2023/10/16 15:52:53;;;;;;;10.70;10.20;;;;;;;;;;5064348;28;20062;-63
2023/10/16 15:55:19;;;;;;;11.60;11.00;;;;;;;;;;5060949;28;20020;-62
2023/10/16 15:57:46;;;;;;;10.43;9.93;;;;;;;;;;5066525;28;20016;-62
2023/10/16 16:00:12;;;;;;;11.10;10.60;;;;;;;;;;5061132;28;20029;-62
2023/10/16 16:02:38;;;;;;;11.05;10.55;;;;;;;;;;5066040;28;20039;-61
2023/10/16 16:05:04;;;;;;;11.02;10.52;;;;;;;;;;5063928;28;20042;-62
2023/10/16 16:07:29;;;;;;;10.57;10.07;;;;;;;;;;5061202;28;20090;-64
2023/10/16 16:09:57;;;;;;;10.18;9.70;;;;;;;;;;5064367;28;20069;-63
2023/10/16 16:12:23;;;;;;;10.02;9.60;;;;;;;;;;5063399;28;20151;-62
2023/10/16 16:14:49;;;;;;;11.50;10.90;;;;;;;;;;5065992;28;20107;-62
2023/10/16 16:17:14;;;;;;;10.75;10.25;;;;;;;;;;5068475;28;20024;-62
2023/10/16 16:19:39;;;;;;;10.18;9.68;;;;;;;;;;5065923;28;20104;-63
2023/10/16 16:22:10;;;;;;;10.25;9.75;;;;;;;;;;5062937;28;20059;-63
2023/10/16 16:24:41;;;;;;;9.98;9.50;;;;;;;;;;5064424;28;20043;-61
2023/10/16 16:27:08;;;;;;;10.40;9.90;;;;;;;;;;5064023;28;20439;-63